Time,TemperatureF,DewpointF,PressureIn,WindDirection,WindDirectionDegrees,WindSpeedMPH,WindSpeedGustMPH,Humidity,HourlyPrecipIn,Conditions,Clouds,dailyrainin,SoftwareType,DateUTC
2013-02-08 00:00:00,23.8,18.2,30.03,SE,130,0.0,0.0,79,0.00,,---,0.00,VWS V14.00,2013-02-08 08:00:00,
2013-02-08 00:05:00,24.1,18.5,30.03,SE,130,0.0,0.0,79,0.00,,---,0.00,VWS V14.00,2013-02-08 08:05:00,
2013-02-08 00:10:00,24.4,18.2,30.03,SE,130,0.0,0.0,77,0.00,,---,0.00,VWS V14.00,2013-02-08 08:10:00,
2013-02-08 00:15:00,24.5,18.3,30.03,SE,130,0.0,0.0,77,0.00,,---,0.00,VWS V14.00,2013-02-08 08:15:00,
2013-02-08 00:20:00,24.7,18.5,30.03,SE,130,0.0,0.0,77,0.00,,---,0.00,VWS V14.00,2013-02-08 08:20:00,
2013-02-08 00:25:00,24.8,18.6,30.03,SE,130,0.0,0.0,77,0.00,,---,0.00,VWS V14.00,2013-02-08 08:25:00,
2013-02-08 00:30:00,25.1,18.9,30.04,SE,130,0.0,0.0,77,0.00,,---,0.00,VWS V14.00,2013-02-08 08:30:00,
2013-02-08 00:35:00,25.3,19.1,30.04,SE,130,0.0,0.0,77,0.00,,---,0.00,VWS V14.00,2013-02-08 08:35:00,
2013-02-08 00:40:00,25.3,19.1,30.04,SE,130,0.0,0.0,77,0.00,,---,0.00,VWS V14.00,2013-02-08 08:40:00,
2013-02-08 00:45:00,25.4,19.2,30.04,SE,130,0.0,0.0,77,0.00,,---,0.00,VWS V14.00,2013-02-08 08:45:00,
2013-02-08 00:51:00,25.6,19.7,30.04,SE,130,0.0,0.0,78,0.00,,---,0.00,VWS V14.00,2013-02-08 08:51:00,
2013-02-08 00:56:00,25.6,19.4,30.04,SE,130,0.0,0.0,77,0.00,,---,0.00,VWS V14.00,2013-02-08 08:56:00,
2013-02-08 01:01:00,25.8,19.9,30.03,SE,130,0.0,0.0,78,0.00,,---,0.00,VWS V14.00,2013-02-08 09:01:00,
2013-02-08 01:06:00,26.1,19.9,30.03,SE,130,0.0,0.0,77,0.00,,---,0.00,VWS V14.00,2013-02-08 09:06:00,
2013-02-08 01:11:00,26.3,20.1,30.03,SE,130,0.0,0.0,77,0.00,,---,0.00,VWS V14.00,2013-02-08 09:11:00,
2013-02-08 01:16:00,26.4,20.2,30.01,SE,130,0.0,0.0,77,0.00,,---,0.00,VWS V14.00,2013-02-08 09:16:00,
2013-02-08 01:21:00,26.4,20.2,30.01,SE,130,0.0,0.0,77,0.00,,---,0.00,VWS V14.00,2013-02-08 09:21:00,
2013-02-08 01:26:00,26.4,20.2,30.01,SE,130,0.0,0.0,77,0.00,,---,0.00,VWS V14.00,2013-02-08 09:26:00,
2013-02-08 01:31:00,26.4,20.5,30.02,SE,130,0.0,0.0,78,0.00,,---,0.00,VWS V14.00,2013-02-08 09:31:00,
2013-02-08 01:36:00,26.6,20.4,30.02,SE,130,0.0,0.0,77,0.00,,---,0.00,VWS V14.00,2013-02-08 09:36:00,
2013-02-08 01:41:00,26.6,20.7,30.02,SE,130,0.0,0.0,78,0.00,,---,0.00,VWS V14.00,2013-02-08 09:41:00,
2013-02-08 01:46:00,26.7,20.8,30.02,SE,130,0.0,0.0,78,0.00,,---,0.00,VWS V14.00,2013-02-08 09:46:00,
2013-02-08 01:51:00,26.7,20.8,30.02,SE,130,0.0,0.0,78,0.00,,---,0.00,VWS V14.00,2013-02-08 09:51:00,
2013-02-08 01:56:00,26.7,20.5,30.02,SE,130,0.0,0.0,77,0.00,,---,0.00,VWS V14.00,2013-02-08 09:56:00,
2013-02-08 02:01:00,26.9,21.0,30.02,SE,130,0.0,0.0,78,0.00,,---,0.00,VWS V14.00,2013-02-08 10:01:00,
2013-02-08 02:06:00,26.9,20.7,30.02,SE,130,0.0,0.0,77,0.00,,---,0.00,VWS V14.00,2013-02-08 10:06:00,
2013-02-08 02:12:00,27.0,20.8,30.02,SE,130,0.0,0.0,77,0.00,,---,0.00,VWS V14.00,2013-02-08 10:12:00,
2013-02-08 02:17:00,27.0,20.8,30.03,SE,130,0.0,0.0,77,0.00,,---,0.00,VWS V14.00,2013-02-08 10:17:00,
2013-02-08 02:22:00,27.2,21.3,30.03,SE,130,0.0,0.0,78,0.00,,---,0.00,VWS V14.00,2013-02-08 10:22:00,
2013-02-08 02:27:00,27.3,21.4,30.03,SE,130,0.0,0.0,78,0.00,,---,0.00,VWS V14.00,2013-02-08 10:27:00,
2013-02-08 02:32:00,27.3,21.1,30.03,SE,130,0.0,0.0,77,0.00,,---,0.00,VWS V14.00,2013-02-08 10:32:00,
2013-02-08 02:37:00,27.5,21.2,30.03,SE,130,0.0,0.0,77,0.00,,---,0.00,VWS V14.00,2013-02-08 10:37:00,
2013-02-08 02:42:00,27.5,20.9,30.03,SE,130,0.0,0.0,76,0.00,,---,0.00,VWS V14.00,2013-02-08 10:42:00,
2013-02-08 02:47:00,27.6,21.0,30.03,SE,130,0.0,0.0,76,0.00,,---,0.00,VWS V14.00,2013-02-08 10:47:00,
2013-02-08 02:52:00,27.6,21.0,30.03,SE,130,0.0,0.0,76,0.00,,---,0.00,VWS V14.00,2013-02-08 10:52:00,
2013-02-08 02:57:00,27.6,21.0,30.03,SE,130,0.0,0.0,76,0.00,,---,0.00,VWS V14.00,2013-02-08 10:57:00,
2013-02-08 03:02:00,27.6,21.0,30.03,SE,130,0.0,0.0,76,0.00,,---,0.00,VWS V14.00,2013-02-08 11:02:00,
2013-02-08 03:07:00,27.6,21.0,30.03,SE,130,0.0,0.0,76,0.00,,---,0.00,VWS V14.00,2013-02-08 11:07:00,
2013-02-08 03:12:00,27.6,21.0,30.03,SE,130,0.0,0.0,76,0.00,,---,0.00,VWS V14.00,2013-02-08 11:12:00,
2013-02-08 03:17:00,27.6,21.0,30.03,SE,130,0.0,0.0,76,0.00,,---,0.00,VWS V14.00,2013-02-08 11:17:00,
2013-02-08 03:22:00,27.5,20.9,30.03,SE,130,0.0,0.0,76,0.00,,---,0.00,VWS V14.00,2013-02-08 11:22:00,
2013-02-08 03:27:00,27.5,20.9,30.03,SE,130,0.0,0.0,76,0.00,,---,0.00,VWS V14.00,2013-02-08 11:27:00,
2013-02-08 03:33:00,27.5,20.9,30.03,SE,130,0.0,0.0,76,0.00,,---,0.00,VWS V14.00,2013-02-08 11:33:00,
2013-02-08 03:38:00,27.5,20.9,30.03,SE,130,0.0,0.0,76,0.00,,---,0.00,VWS V14.00,2013-02-08 11:38:00,
2013-02-08 03:43:00,27.3,20.8,30.03,SE,130,0.0,0.0,76,0.00,,---,0.00,VWS V14.00,2013-02-08 11:43:00,
2013-02-08 03:48:00,27.2,20.3,30.03,SE,130,0.0,0.0,75,0.00,,---,0.00,VWS V14.00,2013-02-08 11:48:00,
2013-02-08 03:53:00,27.0,20.5,30.03,SE,130,0.0,0.0,76,0.00,,---,0.00,VWS V14.00,2013-02-08 11:53:00,
2013-02-08 03:58:00,26.9,20.4,30.03,SE,130,0.0,0.0,76,0.00,,---,0.00,VWS V14.00,2013-02-08 11:58:00,
2013-02-08 04:03:00,26.7,20.2,30.03,SE,130,0.0,0.0,76,0.00,,---,0.00,VWS V14.00,2013-02-08 12:03:00,
2013-02-08 04:08:00,26.7,20.2,30.03,SE,130,0.0,0.0,76,0.00,,---,0.00,VWS V14.00,2013-02-08 12:08:00,
2013-02-08 04:13:00,26.7,20.5,30.03,SE,130,0.0,0.0,77,0.00,,---,0.00,VWS V14.00,2013-02-08 12:13:00,
2013-02-08 04:18:00,26.6,20.4,30.05,SE,130,0.0,0.0,77,0.00,,---,0.00,VWS V14.00,2013-02-08 12:18:00,
2013-02-08 04:23:00,26.6,20.4,30.05,SE,130,0.0,0.0,77,0.00,,---,0.00,VWS V14.00,2013-02-08 12:23:00,
2013-02-08 04:28:00,26.4,20.2,30.05,SE,130,0.0,0.0,77,0.00,,---,0.00,VWS V14.00,2013-02-08 12:28:00,
2013-02-08 04:34:00,26.1,19.6,30.05,SE,130,0.0,0.0,76,0.00,,---,0.00,VWS V14.00,2013-02-08 12:34:00,
2013-02-08 04:39:00,25.8,19.6,30.05,SE,130,0.0,0.0,77,0.00,,---,0.00,VWS V14.00,2013-02-08 12:39:00,
2013-02-08 04:44:00,25.6,19.4,30.05,SE,130,0.0,0.0,77,0.00,,---,0.00,VWS V14.00,2013-02-08 12:44:00,
2013-02-08 04:49:00,25.1,18.9,30.05,SE,130,0.0,0.0,77,0.00,,---,0.00,VWS V14.00,2013-02-08 12:49:00,
2013-02-08 04:54:00,25.1,19.5,30.05,SE,130,0.0,0.0,79,0.00,,---,0.00,VWS V14.00,2013-02-08 12:54:00,
2013-02-08 04:59:00,24.8,18.9,30.05,SE,130,0.0,0.0,78,0.00,,---,0.00,VWS V14.00,2013-02-08 12:59:00,
2013-02-08 05:04:00,24.7,18.8,30.06,SE,130,0.0,0.0,78,0.00,,---,0.00,VWS V14.00,2013-02-08 13:04:00,
2013-02-08 05:09:00,24.4,18.8,30.06,SE,130,0.0,0.0,79,0.00,,---,0.00,VWS V14.00,2013-02-08 13:09:00,
2013-02-08 05:14:00,24.2,18.9,30.08,SE,130,0.0,0.0,80,0.00,,---,0.00,VWS V14.00,2013-02-08 13:14:00,
2013-02-08 05:19:00,24.2,18.9,30.08,SE,130,0.0,0.0,80,0.00,,---,0.00,VWS V14.00,2013-02-08 13:19:00,
2013-02-08 05:24:00,24.2,18.9,30.08,SE,130,0.0,0.0,80,0.00,,---,0.00,VWS V14.00,2013-02-08 13:24:00,
2013-02-08 05:29:00,24.4,19.1,30.09,SE,130,0.0,0.0,80,0.00,,---,0.00,VWS V14.00,2013-02-08 13:29:00,
2013-02-08 05:35:00,24.4,19.4,30.09,SE,130,0.0,0.0,81,0.00,,---,0.00,VWS V14.00,2013-02-08 13:35:00,
2013-02-08 05:40:00,24.5,19.5,30.09,SE,130,0.0,0.0,81,0.00,,---,0.00,VWS V14.00,2013-02-08 13:40:00,
2013-02-08 05:45:00,24.7,19.7,30.08,SE,130,0.0,0.0,81,0.00,,---,0.00,VWS V14.00,2013-02-08 13:45:00,
2013-02-08 05:50:00,24.8,19.8,30.08,SE,130,0.0,0.0,81,0.00,,---,0.00,VWS V14.00,2013-02-08 13:50:00,
2013-02-08 05:55:00,25.0,20.0,30.08,SE,130,0.0,0.0,81,0.00,,---,0.00,VWS V14.00,2013-02-08 13:55:00,
2013-02-08 06:00:00,25.0,19.7,30.08,SE,130,0.0,0.0,80,0.00,,---,0.00,VWS V14.00,2013-02-08 14:00:00,
2013-02-08 06:05:00,25.0,19.7,30.08,SE,130,0.0,0.0,80,0.00,,---,0.00,VWS V14.00,2013-02-08 14:05:00,
2013-02-08 06:11:00,25.0,19.7,30.08,SE,130,0.0,0.0,80,0.00,,---,0.00,VWS V14.00,2013-02-08 14:11:00,
2013-02-08 06:16:00,25.0,19.7,30.10,SE,130,0.0,0.0,80,0.00,,---,0.00,VWS V14.00,2013-02-08 14:16:00,
2013-02-08 06:21:00,24.8,19.5,30.10,SE,130,0.0,0.0,80,0.00,,---,0.00,VWS V14.00,2013-02-08 14:21:00,
2013-02-08 06:26:00,25.0,19.7,30.10,SE,130,0.0,0.0,80,0.00,,---,0.00,VWS V14.00,2013-02-08 14:26:00,
2013-02-08 06:31:00,25.0,19.7,30.10,SE,130,0.0,0.0,80,0.00,,---,0.00,VWS V14.00,2013-02-08 14:31:00,
2013-02-08 06:36:00,25.0,19.7,30.10,SE,130,0.0,0.0,80,0.00,,---,0.00,VWS V14.00,2013-02-08 14:36:00,
2013-02-08 06:41:00,25.0,19.7,30.10,SE,130,0.0,0.0,80,0.00,,---,0.00,VWS V14.00,2013-02-08 14:41:00,
2013-02-08 06:46:00,25.0,19.7,30.10,SE,130,0.0,0.0,80,0.00,,---,0.00,VWS V14.00,2013-02-08 14:46:00,
2013-02-08 06:51:00,24.8,19.2,30.10,SE,130,0.0,0.0,79,0.00,,---,0.00,VWS V14.00,2013-02-08 14:51:00,
2013-02-08 06:56:00,24.5,18.9,30.10,SE,130,0.0,0.0,79,0.00,,---,0.00,VWS V14.00,2013-02-08 14:56:00,
2013-02-08 07:01:00,24.4,18.8,30.11,SE,130,0.0,0.0,79,0.00,,---,0.00,VWS V14.00,2013-02-08 15:01:00,
2013-02-08 07:07:00,24.1,18.5,30.11,SE,130,0.0,0.0,79,0.00,,---,0.00,VWS V14.00,2013-02-08 15:07:00,
2013-02-08 07:12:00,23.9,18.4,30.11,SE,130,0.0,0.0,79,0.00,,---,0.00,VWS V14.00,2013-02-08 15:12:00,
2013-02-08 07:17:00,23.6,18.1,30.14,SE,130,0.0,0.0,79,0.00,,---,0.00,VWS V14.00,2013-02-08 15:17:00,
2013-02-08 07:22:00,23.2,17.7,30.14,SE,130,0.0,0.0,79,0.00,,---,0.00,VWS V14.00,2013-02-08 15:22:00,
2013-02-08 07:27:00,22.9,17.7,30.14,SE,130,0.0,0.0,80,0.00,,---,0.00,VWS V14.00,2013-02-08 15:27:00,
2013-02-08 07:32:00,22.5,17.3,30.15,SE,130,0.0,0.0,80,0.00,,---,0.00,VWS V14.00,2013-02-08 15:32:00,
2013-02-08 07:37:00,22.2,17.0,30.15,SE,130,0.0,0.0,80,0.00,,---,0.00,VWS V14.00,2013-02-08 15:37:00,
2013-02-08 07:43:00,21.9,16.7,30.15,SE,130,0.0,0.0,80,0.00,,---,0.00,VWS V14.00,2013-02-08 15:43:00,
2013-02-08 07:48:00,21.4,16.2,30.15,SE,130,0.0,0.0,80,0.00,,---,0.00,VWS V14.00,2013-02-08 15:48:00,
2013-02-08 07:53:00,21.3,16.7,30.15,SE,130,0.0,0.0,82,0.00,,---,0.00,VWS V14.00,2013-02-08 15:53:00,
2013-02-08 07:58:00,21.1,16.5,30.15,SE,130,0.0,0.0,82,0.00,,---,0.00,VWS V14.00,2013-02-08 15:58:00,
2013-02-08 08:03:00,21.0,16.4,30.16,SE,130,0.0,0.0,82,0.00,,---,0.00,VWS V14.00,2013-02-08 16:03:00,
2013-02-08 08:08:00,20.8,15.9,30.16,SE,130,0.0,0.0,81,0.00,,---,0.00,VWS V14.00,2013-02-08 16:08:00,
2013-02-08 08:13:00,20.8,15.9,30.16,SE,130,0.0,0.0,81,0.00,,---,0.00,VWS V14.00,2013-02-08 16:13:00,
2013-02-08 08:18:00,20.8,15.9,30.18,SE,130,0.0,0.0,81,0.00,,---,0.00,VWS V14.00,2013-02-08 16:18:00,
2013-02-08 08:23:00,21.0,16.1,30.18,SE,130,0.0,0.0,81,0.00,,---,0.00,VWS V14.00,2013-02-08 16:23:00,
2013-02-08 08:28:00,21.3,16.7,30.18,SE,130,0.0,0.0,82,0.00,,---,0.00,VWS V14.00,2013-02-08 16:28:00,
2013-02-08 08:33:00,21.8,17.2,30.18,SE,130,0.0,0.0,82,0.00,,---,0.00,VWS V14.00,2013-02-08 16:33:00,
2013-02-08 08:39:00,22.1,17.5,30.18,SE,130,0.0,0.0,82,0.00,,---,0.00,VWS V14.00,2013-02-08 16:39:00,
2013-02-08 08:44:00,22.5,17.9,30.18,SE,130,0.0,0.0,82,0.00,,---,0.00,VWS V14.00,2013-02-08 16:44:00,
2013-02-08 08:49:00,24.1,19.7,30.17,SE,130,0.0,0.0,83,0.00,,---,0.00,VWS V14.00,2013-02-08 16:49:00,
2013-02-08 08:54:00,25.7,21.0,30.17,SE,130,0.0,0.0,82,0.00,,---,0.00,VWS V14.00,2013-02-08 16:54:00,
2013-02-08 08:59:00,27.2,21.9,30.17,SE,130,0.0,0.0,80,0.00,,---,0.00,VWS V14.00,2013-02-08 16:59:00,
2013-02-08 09:04:00,28.7,21.8,30.16,SE,130,0.0,0.0,75,0.00,,---,0.00,VWS V14.00,2013-02-08 17:04:00,
2013-02-08 09:09:00,30.1,22.5,30.16,SE,130,0.0,0.0,73,0.00,,---,0.00,VWS V14.00,2013-02-08 17:09:00,
2013-02-08 09:15:00,30.6,23.3,30.14,SE,130,2.0,2.0,74,0.00,,---,0.00,VWS V14.00,2013-02-08 17:15:00,
2013-02-08 09:20:00,30.9,23.6,30.14,SE,130,0.0,2.0,74,0.00,,---,0.00,VWS V14.00,2013-02-08 17:20:00,
2013-02-08 09:25:00,30.9,21.6,30.14,SE,130,0.0,2.0,68,0.00,,---,0.00,VWS V14.00,2013-02-08 17:25:00,
2013-02-08 09:30:00,30.9,21.2,30.14,SE,130,0.0,2.0,67,0.00,,---,0.00,VWS V14.00,2013-02-08 17:30:00,
2013-02-08 09:35:00,30.9,20.5,30.14,SE,130,0.0,3.0,65,0.00,,---,0.00,VWS V14.00,2013-02-08 17:35:00,
2013-02-08 09:41:00,30.7,19.2,30.14,ESE,120,0.0,3.0,62,0.00,,---,0.00,VWS V14.00,2013-02-08 17:41:00,
2013-02-08 09:46:00,30.7,18.9,30.14,North,359,0.0,3.0,61,0.00,,---,0.00,VWS V14.00,2013-02-08 17:46:00,
2013-02-08 09:51:00,30.9,17.9,30.14,North,354,0.0,3.0,58,0.00,,---,0.00,VWS V14.00,2013-02-08 17:51:00,
2013-02-08 09:56:00,31.8,19.1,30.14,North,354,0.0,3.0,59,0.00,,---,0.00,VWS V14.00,2013-02-08 17:56:00,
2013-02-08 10:01:00,32.4,18.9,30.13,NNW,339,0.0,3.0,57,0.00,,---,0.00,VWS V14.00,2013-02-08 18:01:00,
2013-02-08 10:06:00,33.1,18.7,30.13,NNE,28,0.0,5.0,55,0.00,,---,0.00,VWS V14.00,2013-02-08 18:06:00,
2013-02-08 10:11:00,34.1,19.2,30.13,NNE,25,0.0,2.0,54,0.00,,---,0.00,VWS V14.00,2013-02-08 18:11:00,
2013-02-08 10:16:00,35.0,19.2,30.13,NNE,24,0.0,3.0,52,0.00,,---,0.00,VWS V14.00,2013-02-08 18:16:00,
2013-02-08 10:22:00,35.3,19.0,30.13,North,357,0.0,2.0,51,0.00,,---,0.00,VWS V14.00,2013-02-08 18:22:00,
2013-02-08 10:27:00,35.0,18.7,30.13,NNE,14,1.0,5.0,51,0.00,,---,0.00,VWS V14.00,2013-02-08 18:27:00,
2013-02-08 10:32:00,34.4,17.7,30.13,NNE,28,3.0,6.0,50,0.00,,---,0.00,VWS V14.00,2013-02-08 18:32:00,
2013-02-08 10:37:00,34.3,17.1,30.13,NNE,27,0.0,6.0,49,0.00,,---,0.00,VWS V14.00,2013-02-08 18:37:00,
2013-02-08 10:42:00,34.0,16.9,30.13,NNW,328,0.0,2.0,49,0.00,,---,0.00,VWS V14.00,2013-02-08 18:42:00,
2013-02-08 10:47:00,34.3,17.1,30.14,North,357,0.0,5.0,49,0.00,,---,0.00,VWS V14.00,2013-02-08 18:47:00,
2013-02-08 10:52:00,34.4,17.2,30.14,North,353,5.0,5.0,49,0.00,,---,0.00,VWS V14.00,2013-02-08 18:52:00,
2013-02-08 10:57:00,34.0,17.3,30.14,North,11,2.0,11.0,50,0.00,,---,0.00,VWS V14.00,2013-02-08 18:57:00,
2013-02-08 11:03:00,34.0,16.9,30.14,North,7,0.0,1.0,49,0.00,,---,0.00,VWS V14.00,2013-02-08 19:03:00,
2013-02-08 11:08:00,34.0,16.9,30.14,North,8,0.0,3.0,49,0.00,,---,0.00,VWS V14.00,2013-02-08 19:08:00,
2013-02-08 11:13:00,34.4,16.3,30.14,North,7,2.0,3.0,47,0.00,,---,0.00,VWS V14.00,2013-02-08 19:13:00,
2013-02-08 11:18:00,34.7,16.5,30.12,North,350,0.0,5.0,47,0.00,,---,0.00,VWS V14.00,2013-02-08 19:18:00,
2013-02-08 11:23:00,35.2,17.0,30.12,North,354,0.0,3.0,47,0.00,,---,0.00,VWS V14.00,2013-02-08 19:23:00,
2013-02-08 11:28:00,35.6,16.4,30.12,NW,309,0.0,5.0,45,0.00,,---,0.00,VWS V14.00,2013-02-08 19:28:00,
2013-02-08 11:34:00,35.9,17.1,30.11,NNE,30,0.0,5.0,46,0.00,,---,0.00,VWS V14.00,2013-02-08 19:34:00,
2013-02-08 11:39:00,35.9,16.6,30.11,North,357,1.0,5.0,45,0.00,,---,0.00,VWS V14.00,2013-02-08 19:39:00,
2013-02-08 11:44:00,35.9,16.1,30.11,North,1,3.0,5.0,44,0.00,,---,0.00,VWS V14.00,2013-02-08 19:44:00,
2013-02-08 11:49:00,35.3,15.6,30.11,NNW,343,2.0,6.0,44,0.00,,---,0.00,VWS V14.00,2013-02-08 19:49:00,
2013-02-08 11:54:00,35.0,14.8,30.11,North,7,5.0,5.0,43,0.00,,---,0.00,VWS V14.00,2013-02-08 19:54:00,
2013-02-08 11:59:00,35.5,15.2,30.11,North,10,0.0,5.0,43,0.00,,---,0.00,VWS V14.00,2013-02-08 19:59:00,
2013-02-08 12:04:00,35.8,15.5,30.11,North,357,0.0,3.0,43,0.00,,---,0.00,VWS V14.00,2013-02-08 20:04:00,
2013-02-08 12:09:00,35.8,14.4,30.11,North,357,0.0,8.0,41,0.00,,---,0.00,VWS V14.00,2013-02-08 20:09:00,
2013-02-08 12:14:00,35.6,15.3,30.09,WNW,294,0.0,7.0,43,0.00,,---,0.00,VWS V14.00,2013-02-08 20:14:00,
2013-02-08 12:20:00,35.5,15.8,30.09,North,4,5.0,7.0,44,0.00,,---,0.00,VWS V14.00,2013-02-08 20:20:00,
2013-02-08 12:25:00,35.2,15.0,30.09,North,4,2.0,6.0,43,0.00,,---,0.00,VWS V14.00,2013-02-08 20:25:00,
2013-02-08 12:30:00,35.2,14.4,30.10,North,6,0.0,6.0,42,0.00,,---,0.00,VWS V14.00,2013-02-08 20:30:00,
2013-02-08 12:35:00,35.2,13.9,30.10,North,359,3.0,10.0,41,0.00,,---,0.00,VWS V14.00,2013-02-08 20:35:00,
2013-02-08 12:40:00,35.8,14.4,30.10,NNE,14,6.0,10.0,41,0.00,,---,0.00,VWS V14.00,2013-02-08 20:40:00,
2013-02-08 12:45:00,36.8,14.2,30.08,NE,40,5.0,6.0,39,0.00,,---,0.00,VWS V14.00,2013-02-08 20:45:00,
2013-02-08 12:50:00,37.6,14.9,30.08,North,354,3.0,7.0,39,0.00,,---,0.00,VWS V14.00,2013-02-08 20:50:00,
2013-02-08 12:55:00,38.6,15.8,30.08,North,359,1.0,5.0,39,0.00,,---,0.00,VWS V14.00,2013-02-08 20:55:00,
2013-02-08 13:00:00,38.9,14.9,30.07,NW,316,2.0,3.0,37,0.00,,---,0.00,VWS V14.00,2013-02-08 21:00:00,
2013-02-08 13:06:00,39.3,13.3,30.07,North,354,0.0,8.0,34,0.00,,---,0.00,VWS V14.00,2013-02-08 21:06:00,
2013-02-08 13:11:00,39.9,13.1,30.07,North,0,4.0,7.0,33,0.00,,---,0.00,VWS V14.00,2013-02-08 21:11:00,
2013-02-08 13:16:00,40.5,14.4,30.06,NNE,14,1.0,7.0,34,0.00,,---,0.00,VWS V14.00,2013-02-08 21:16:00,
2013-02-08 13:21:00,40.3,14.2,30.06,NNE,21,1.0,5.0,34,0.00,,---,0.00,VWS V14.00,2013-02-08 21:21:00,
2013-02-08 13:26:00,40.8,14.6,30.06,NW,326,0.0,6.0,34,0.00,,---,0.00,VWS V14.00,2013-02-08 21:26:00,
2013-02-08 13:31:00,40.3,12.8,30.05,North,11,6.0,6.0,32,0.00,,---,0.00,VWS V14.00,2013-02-08 21:31:00,
2013-02-08 13:36:00,40.1,13.3,30.05,NE,34,1.0,6.0,33,0.00,,---,0.00,VWS V14.00,2013-02-08 21:36:00,
2013-02-08 13:41:00,39.3,13.3,30.05,North,359,2.0,3.0,34,0.00,,---,0.00,VWS V14.00,2013-02-08 21:41:00,
2013-02-08 13:46:00,39.2,13.2,30.06,NW,316,0.0,10.0,34,0.00,,---,0.00,VWS V14.00,2013-02-08 21:46:00,
2013-02-08 13:51:00,38.6,13.3,30.06,North,1,2.0,11.0,35,0.00,,---,0.00,VWS V14.00,2013-02-08 21:51:00,
2013-02-08 13:57:00,38.8,13.5,30.06,NNE,18,0.0,11.0,35,0.00,,---,0.00,VWS V14.00,2013-02-08 21:57:00,
2013-02-08 14:02:00,38.9,11.6,30.06,North,349,2.0,4.0,32,0.00,,---,0.00,VWS V14.00,2013-02-08 22:02:00,
2013-02-08 14:07:00,39.1,13.1,30.06,NNE,28,6.0,6.0,34,0.00,,---,0.00,VWS V14.00,2013-02-08 22:07:00,
2013-02-08 14:12:00,38.8,10.8,30.06,NNE,16,5.0,5.0,31,0.00,,---,0.00,VWS V14.00,2013-02-08 22:12:00,
2013-02-08 14:17:00,38.2,10.9,30.05,North,1,6.0,7.0,32,0.00,,---,0.00,VWS V14.00,2013-02-08 22:17:00,
2013-02-08 14:22:00,37.5,11.7,30.05,WNW,294,2.0,8.0,34,0.00,,---,0.00,VWS V14.00,2013-02-08 22:22:00,
2013-02-08 14:27:00,37.6,12.4,30.05,North,11,3.0,8.0,35,0.00,,---,0.00,VWS V14.00,2013-02-08 22:27:00,
2013-02-08 14:32:00,37.8,11.3,30.05,North,4,2.0,7.0,33,0.00,,---,0.00,VWS V14.00,2013-02-08 22:32:00,
2013-02-08 14:37:00,37.6,11.1,30.05,NW,320,3.0,7.0,33,0.00,,---,0.00,VWS V14.00,2013-02-08 22:37:00,
2013-02-08 14:42:00,37.6,12.4,30.05,North,359,0.0,5.0,35,0.00,,---,0.00,VWS V14.00,2013-02-08 22:42:00,
2013-02-08 14:48:00,37.5,11.7,30.06,North,354,3.0,7.0,34,0.00,,---,0.00,VWS V14.00,2013-02-08 22:48:00,
2013-02-08 14:53:00,37.5,11.7,30.06,NNW,340,0.0,3.0,34,0.00,,---,0.00,VWS V14.00,2013-02-08 22:53:00,
2013-02-08 14:58:00,37.5,11.0,30.06,North,8,1.0,7.0,33,0.00,,---,0.00,VWS V14.00,2013-02-08 22:58:00,
2013-02-08 15:03:00,37.3,9.4,30.06,North,0,0.0,5.0,31,0.00,,---,0.00,VWS V14.00,2013-02-08 23:03:00,
2013-02-08 15:08:00,37.3,10.2,30.06,NNE,28,1.0,5.0,32,0.00,,---,0.00,VWS V14.00,2013-02-08 23:08:00,
2013-02-08 15:13:00,37.2,8.6,30.06,West,267,0.0,6.0,30,0.00,,---,0.00,VWS V14.00,2013-02-08 23:13:00,
2013-02-08 15:18:00,37.0,9.2,30.07,North,0,3.0,6.0,31,0.00,,---,0.00,VWS V14.00,2013-02-08 23:18:00,
2013-02-08 15:23:00,37.2,10.1,30.07,NNW,336,0.0,3.0,32,0.00,,---,0.00,VWS V14.00,2013-02-08 23:23:00,
2013-02-08 15:28:00,37.2,10.8,30.07,North,354,0.0,3.0,33,0.00,,---,0.00,VWS V14.00,2013-02-08 23:28:00,
2013-02-08 15:33:00,37.2,11.4,30.07,North,356,0.0,2.0,34,0.00,,---,0.00,VWS V14.00,2013-02-08 23:33:00,
2013-02-08 15:38:00,37.0,9.2,30.07,North,11,0.0,6.0,31,0.00,,---,0.00,VWS V14.00,2013-02-08 23:38:00,
2013-02-08 15:43:00,36.8,10.4,30.07,NNE,16,0.0,3.0,33,0.00,,---,0.00,VWS V14.00,2013-02-08 23:43:00,
2013-02-08 15:49:00,36.6,9.6,30.07,NNE,31,5.0,5.0,32,0.00,,---,0.00,VWS V14.00,2013-02-08 23:49:00,
2013-02-08 15:54:00,36.3,10.6,30.07,NNE,30,5.0,5.0,34,0.00,,---,0.00,VWS V14.00,2013-02-08 23:54:00,
2013-02-08 15:59:00,36.2,9.2,30.07,North,354,0.0,6.0,32,0.00,,---,0.00,VWS V14.00,2013-02-08 23:59:00,
2013-02-08 16:04:00,36.0,9.0,30.08,North,4,2.0,3.0,32,0.00,,---,0.00,VWS V14.00,2013-02-09 00:04:00,
2013-02-08 16:09:00,35.9,8.9,30.08,NE,38,1.0,6.0,32,0.00,,---,0.00,VWS V14.00,2013-02-09 00:09:00,
2013-02-08 16:14:00,35.9,9.6,30.08,NE,34,0.0,2.0,33,0.00,,---,0.00,VWS V14.00,2013-02-09 00:14:00,
2013-02-08 16:19:00,35.6,9.4,30.09,NNE,18,0.0,5.0,33,0.00,,---,0.00,VWS V14.00,2013-02-09 00:19:00,
2013-02-08 16:24:00,35.5,10.6,30.09,NW,319,1.0,5.0,35,0.00,,---,0.00,VWS V14.00,2013-02-09 00:24:00,
2013-02-08 16:29:00,35.2,10.3,30.09,NNE,16,0.0,5.0,35,0.00,,---,0.00,VWS V14.00,2013-02-09 00:29:00,
2013-02-08 16:34:00,35.0,11.4,30.09,NNE,14,2.0,3.0,37,0.00,,---,0.00,VWS V14.00,2013-02-09 00:34:00,
2013-02-08 16:40:00,34.9,12.5,30.09,NNE,16,0.0,3.0,39,0.00,,---,0.00,VWS V14.00,2013-02-09 00:40:00,
2013-02-08 16:45:00,34.7,12.3,30.09,NNE,16,0.0,1.0,39,0.00,,---,0.00,VWS V14.00,2013-02-09 00:45:00,
2013-02-08 16:50:00,34.4,12.6,30.09,NNE,16,0.0,2.0,40,0.00,,---,0.00,VWS V14.00,2013-02-09 00:50:00,
2013-02-08 16:55:00,34.3,13.1,30.09,NNE,16,1.0,3.0,41,0.00,,---,0.00,VWS V14.00,2013-02-09 00:55:00,
2013-02-08 17:00:00,34.0,13.3,30.10,NNE,13,0.0,3.0,42,0.00,,---,0.00,VWS V14.00,2013-02-09 01:00:00,
2013-02-08 17:05:00,33.7,13.6,30.10,NNE,13,0.0,2.0,43,0.00,,---,0.00,VWS V14.00,2013-02-09 01:05:00,
2013-02-08 17:10:00,33.4,13.3,30.10,NNE,13,0.0,2.0,43,0.00,,---,0.00,VWS V14.00,2013-02-09 01:10:00,
2013-02-08 17:15:00,33.1,14.1,30.10,NNE,13,0.0,0.0,45,0.00,,---,0.00,VWS V14.00,2013-02-09 01:15:00,
2013-02-08 17:20:00,32.8,13.8,30.10,NNE,13,1.0,1.0,45,0.00,,---,0.00,VWS V14.00,2013-02-09 01:20:00,
2013-02-08 17:25:00,32.5,14.0,30.10,North,10,0.0,2.0,46,0.00,,---,0.00,VWS V14.00,2013-02-09 01:25:00,
2013-02-08 17:30:00,32.2,13.8,30.12,North,10,0.0,0.0,46,0.00,,---,0.00,VWS V14.00,2013-02-09 01:30:00,
2013-02-08 17:36:00,31.9,14.0,30.12,North,10,0.0,0.0,47,0.00,,---,0.00,VWS V14.00,2013-02-09 01:36:00,
2013-02-08 17:41:00,31.6,14.2,30.12,North,10,0.0,0.0,48,0.00,,---,0.00,VWS V14.00,2013-02-09 01:41:00,
2013-02-08 17:46:00,31.2,14.3,30.12,North,10,0.0,0.0,49,0.00,,---,0.00,VWS V14.00,2013-02-09 01:46:00,
2013-02-08 17:51:00,30.7,13.8,30.12,North,10,0.0,0.0,49,0.00,,---,0.00,VWS V14.00,2013-02-09 01:51:00,
2013-02-08 17:56:00,30.3,13.9,30.12,North,10,0.0,0.0,50,0.00,,---,0.00,VWS V14.00,2013-02-09 01:56:00,
2013-02-08 18:01:00,29.8,14.8,30.13,North,10,0.0,0.0,53,0.00,,---,0.00,VWS V14.00,2013-02-09 02:01:00,
2013-02-08 18:06:00,29.0,14.9,30.13,North,10,0.0,0.0,55,0.00,,---,0.00,VWS V14.00,2013-02-09 02:06:00,
2013-02-08 18:11:00,28.1,14.4,30.13,North,10,0.0,2.0,56,0.00,,---,0.00,VWS V14.00,2013-02-09 02:11:00,
2013-02-08 18:17:00,27.5,14.3,30.15,North,10,0.0,2.0,57,0.00,,---,0.00,VWS V14.00,2013-02-09 02:17:00,
2013-02-08 18:22:00,26.9,14.1,30.15,North,10,0.0,0.0,58,0.00,,---,0.00,VWS V14.00,2013-02-09 02:22:00,
2013-02-08 18:27:00,26.4,14.0,30.15,North,10,0.0,1.0,59,0.00,,---,0.00,VWS V14.00,2013-02-09 02:27:00,
2013-02-08 18:32:00,26.0,14.4,30.16,North,10,0.0,0.0,61,0.00,,---,0.00,VWS V14.00,2013-02-09 02:32:00,
2013-02-08 18:37:00,25.7,14.1,30.16,North,10,0.0,0.0,61,0.00,,---,0.00,VWS V14.00,2013-02-09 02:37:00,
2013-02-08 18:42:00,25.7,14.1,30.16,North,10,0.0,0.0,61,0.00,,---,0.00,VWS V14.00,2013-02-09 02:42:00,
2013-02-08 18:47:00,25.6,14.8,30.16,North,10,0.0,0.0,63,0.00,,---,0.00,VWS V14.00,2013-02-09 02:47:00,
2013-02-08 18:52:00,25.3,13.8,30.16,North,10,0.0,0.0,61,0.00,,---,0.00,VWS V14.00,2013-02-09 02:52:00,
2013-02-08 18:57:00,25.4,13.5,30.16,North,10,0.0,0.0,60,0.00,,---,0.00,VWS V14.00,2013-02-09 02:57:00,
2013-02-08 19:02:00,25.6,13.7,30.17,North,10,0.0,0.0,60,0.00,,---,0.00,VWS V14.00,2013-02-09 03:02:00,
2013-02-08 19:07:00,25.4,14.2,30.17,North,10,0.0,0.0,62,0.00,,---,0.00,VWS V14.00,2013-02-09 03:07:00,
2013-02-08 19:13:00,25.1,15.0,30.17,North,10,0.0,0.0,65,0.00,,---,0.00,VWS V14.00,2013-02-09 03:13:00,
2013-02-08 19:18:00,24.8,15.1,30.18,North,10,0.0,0.0,66,0.00,,---,0.00,VWS V14.00,2013-02-09 03:18:00,
2013-02-08 19:23:00,24.4,14.7,30.18,North,10,0.0,0.0,66,0.00,,---,0.00,VWS V14.00,2013-02-09 03:23:00,
2013-02-08 19:28:00,24.1,14.7,30.18,North,10,0.0,0.0,67,0.00,,---,0.00,VWS V14.00,2013-02-09 03:28:00,
2013-02-08 19:33:00,23.9,14.6,30.19,North,10,0.0,0.0,67,0.00,,---,0.00,VWS V14.00,2013-02-09 03:33:00,
2013-02-08 19:38:00,23.8,14.8,30.19,North,10,0.0,0.0,68,0.00,,---,0.00,VWS V14.00,2013-02-09 03:38:00,
2013-02-08 19:43:00,23.6,14.9,30.19,North,10,0.0,0.0,69,0.00,,---,0.00,VWS V14.00,2013-02-09 03:43:00,
2013-02-08 19:48:00,23.5,14.5,30.19,North,10,0.0,0.0,68,0.00,,---,0.00,VWS V14.00,2013-02-09 03:48:00,
2013-02-08 19:54:00,23.3,14.3,30.19,North,10,0.0,0.0,68,0.00,,---,0.00,VWS V14.00,2013-02-09 03:54:00,
2013-02-08 19:59:00,23.2,14.6,30.19,North,10,0.0,0.0,69,0.00,,---,0.00,VWS V14.00,2013-02-09 03:59:00,
2013-02-08 20:04:00,22.9,14.3,30.19,North,10,0.0,0.0,69,0.00,,---,0.00,VWS V14.00,2013-02-09 04:04:00,
2013-02-08 20:09:00,22.7,13.4,30.19,North,10,0.0,1.0,67,0.00,,---,0.00,VWS V14.00,2013-02-09 04:09:00,
2013-02-08 20:14:00,22.5,13.6,30.19,North,10,1.0,1.0,68,0.00,,---,0.00,VWS V14.00,2013-02-09 04:14:00,
2013-02-08 20:20:00,22.5,13.2,30.16,North,10,0.0,2.0,67,0.00,,---,0.00,VWS V14.00,2013-02-09 04:20:00,
2013-02-08 20:25:00,22.4,13.8,30.16,North,10,0.0,0.0,69,0.00,,---,0.00,VWS V14.00,2013-02-09 04:25:00,
2013-02-08 20:30:00,21.9,13.0,30.16,North,10,0.0,0.0,68,0.00,,---,0.00,VWS V14.00,2013-02-09 04:30:00,
2013-02-08 20:35:00,21.8,13.9,30.16,North,10,0.0,0.0,71,0.00,,---,0.00,VWS V14.00,2013-02-09 04:35:00,
2013-02-08 20:40:00,21.8,13.5,30.16,North,10,0.0,0.0,70,0.00,,---,0.00,VWS V14.00,2013-02-09 04:40:00,
2013-02-08 20:45:00,21.6,13.7,30.16,North,10,0.0,0.0,71,0.00,,---,0.00,VWS V14.00,2013-02-09 04:45:00,
2013-02-08 20:51:00,21.4,13.8,30.16,North,10,0.0,0.0,72,0.00,,---,0.00,VWS V14.00,2013-02-09 04:51:00,
2013-02-08 20:56:00,21.3,13.4,30.16,North,10,0.0,0.0,71,0.00,,---,0.00,VWS V14.00,2013-02-09 04:56:00,
2013-02-08 21:00:00,21.1,13.5,30.17,North,10,0.0,0.0,72,0.00,,---,0.00,VWS V14.00,2013-02-09 05:00:00,
2013-02-08 21:02:00,21.1,13.5,30.17,North,10,0.0,0.0,72,0.00,,---,0.00,VWS V14.00,2013-02-09 05:02:00,
2013-02-08 21:07:00,20.8,13.2,30.17,North,10,0.0,0.0,72,0.00,,---,0.00,VWS V14.00,2013-02-09 05:07:00,
2013-02-08 21:08:00,20.8,13.5,30.17,North,10,0.0,0.0,73,0.00,,---,0.00,VWS V14.00,2013-02-09 05:08:00,
2013-02-08 21:13:00,20.6,13.0,30.17,North,10,0.0,0.0,72,0.00,,---,0.00,VWS V14.00,2013-02-09 05:13:00,
2013-02-08 21:18:00,20.5,13.2,30.15,North,10,0.0,0.0,73,0.00,,---,0.00,VWS V14.00,2013-02-09 05:18:00,
2013-02-08 21:23:00,20.3,13.0,30.15,North,10,0.0,0.0,73,0.00,,---,0.00,VWS V14.00,2013-02-09 05:23:00,
2013-02-08 21:28:00,20.2,12.6,30.15,North,10,0.0,0.0,72,0.00,,---,0.00,VWS V14.00,2013-02-09 05:28:00,
2013-02-08 21:33:00,20.0,12.4,30.15,North,10,0.0,0.0,72,0.00,,---,0.00,VWS V14.00,2013-02-09 05:33:00,
2013-02-08 21:38:00,20.0,12.8,30.15,North,10,0.0,0.0,73,0.00,,---,0.00,VWS V14.00,2013-02-09 05:38:00,
2013-02-08 21:44:00,19.9,12.7,30.15,North,10,0.0,0.0,73,0.00,,---,0.00,VWS V14.00,2013-02-09 05:44:00,
2013-02-08 21:49:00,19.7,12.1,30.16,North,10,0.0,0.0,72,0.00,,---,0.00,VWS V14.00,2013-02-09 05:49:00,
2013-02-08 21:54:00,19.4,11.9,30.16,North,10,0.0,0.0,72,0.00,,---,0.00,VWS V14.00,2013-02-09 05:54:00,
2013-02-08 21:59:00,19.2,12.0,30.16,North,10,0.0,0.0,73,0.00,,---,0.00,VWS V14.00,2013-02-09 05:59:00,
2013-02-08 22:04:00,19.1,12.2,30.17,North,10,0.0,0.0,74,0.00,,---,0.00,VWS V14.00,2013-02-09 06:04:00,
2013-02-08 22:09:00,19.1,12.2,30.17,North,10,0.0,0.0,74,0.00,,---,0.00,VWS V14.00,2013-02-09 06:09:00,
2013-02-08 22:14:00,18.8,11.9,30.17,North,10,0.0,0.0,74,0.00,,---,0.00,VWS V14.00,2013-02-09 06:14:00,
2013-02-08 22:19:00,18.6,11.7,30.16,North,10,0.0,0.0,74,0.00,,---,0.00,VWS V14.00,2013-02-09 06:19:00,
2013-02-08 22:24:00,18.3,11.4,30.16,North,10,0.0,0.0,74,0.00,,---,0.00,VWS V14.00,2013-02-09 06:24:00,
2013-02-08 22:29:00,18.3,10.2,30.16,North,10,0.0,0.0,70,0.00,,---,0.00,VWS V14.00,2013-02-09 06:29:00,
2013-02-08 22:34:00,18.1,10.0,30.16,North,10,0.0,0.0,70,0.00,,---,0.00,VWS V14.00,2013-02-09 06:34:00,
2013-02-08 22:39:00,18.1,10.0,30.16,North,10,0.0,0.0,70,0.00,,---,0.00,VWS V14.00,2013-02-09 06:39:00,
2013-02-08 22:44:00,18.0,9.9,30.17,North,10,0.0,0.0,70,0.00,,---,0.00,VWS V14.00,2013-02-09 06:44:00,
2013-02-08 22:49:00,17.8,10.0,30.17,North,10,0.0,0.0,71,0.00,,---,0.00,VWS V14.00,2013-02-09 06:49:00,
2013-02-08 22:55:00,17.7,9.9,30.17,North,10,0.0,0.0,71,0.00,,---,0.00,VWS V14.00,2013-02-09 06:55:00,
2013-02-08 23:00:00,17.5,9.7,30.17,North,10,0.0,0.0,71,0.00,,---,0.00,VWS V14.00,2013-02-09 07:00:00,
2013-02-08 23:05:00,17.2,9.4,30.17,North,11,0.0,2.0,71,0.00,,---,0.00,VWS V14.00,2013-02-09 07:05:00,
2013-02-08 23:10:00,17.2,9.4,30.17,North,11,0.0,2.0,71,0.00,,---,0.00,VWS V14.00,2013-02-09 07:10:00,
2013-02-08 23:15:00,17.0,9.2,30.17,North,11,0.0,0.0,71,0.00,,---,0.00,VWS V14.00,2013-02-09 07:15:00,
2013-02-08 23:20:00,16.9,9.1,30.17,North,11,0.0,0.0,71,0.00,,---,0.00,VWS V14.00,2013-02-09 07:20:00,
2013-02-08 23:25:00,16.7,9.9,30.17,North,11,0.0,0.0,74,0.00,,---,0.00,VWS V14.00,2013-02-09 07:25:00,
2013-02-08 23:30:00,16.7,9.9,30.17,North,11,0.0,1.0,74,0.00,,---,0.00,VWS V14.00,2013-02-09 07:30:00,
2013-02-08 23:35:00,16.5,9.7,30.17,North,11,0.0,0.0,74,0.00,,---,0.00,VWS V14.00,2013-02-09 07:35:00,
2013-02-08 23:40:00,16.4,9.6,30.17,North,11,0.0,0.0,74,0.00,,---,0.00,VWS V14.00,2013-02-09 07:40:00,
2013-02-08 23:45:00,16.2,9.7,30.17,North,11,0.0,0.0,75,0.00,,---,0.00,VWS V14.00,2013-02-09 07:45:00,
2013-02-08 23:50:00,16.1,9.3,30.17,North,11,0.0,0.0,74,0.00,,---,0.00,VWS V14.00,2013-02-09 07:50:00,
2013-02-08 23:55:00,16.1,9.6,30.17,North,11,0.0,0.0,75,0.00,,---,0.00,VWS V14.00,2013-02-09 07:55:00,